createdAt,value
2017-12-03T00:02:26.456Z,1.40
2017-12-03T00:04:53.301Z,1.40
2017-12-03T00:07:21.156Z,1.30
2017-12-03T00:09:48.738Z,1.40
2017-12-03T00:12:15.631Z,1.40
2017-12-03T00:14:43.468Z,1.40
2017-12-03T00:17:10.449Z,1.40
2017-12-03T00:19:37.307Z,1.30
2017-12-03T00:22:04.909Z,1.50
2017-12-03T00:24:31.801Z,1.50
2017-12-03T00:26:58.733Z,1.50
2017-12-03T00:29:26.190Z,1.50
2017-12-03T00:31:53.291Z,1.50
2017-12-03T00:34:21.430Z,1.60
2017-12-03T00:36:49.048Z,1.40
2017-12-03T00:39:16.231Z,1.50
2017-12-03T00:41:44.077Z,1.50
2017-12-03T00:44:11.797Z,1.60
2017-12-03T00:46:38.672Z,1.50
2017-12-03T00:49:05.500Z,1.50
2017-12-03T00:51:32.316Z,1.60
2017-12-03T00:53:59.229Z,1.60
2017-12-03T00:56:26.070Z,1.50
2017-12-03T00:58:52.970Z,1.40
2017-12-03T01:01:19.815Z,1.40
2017-12-03T01:03:46.655Z,1.50
2017-12-03T01:06:13.535Z,1.50
2017-12-03T01:08:40.351Z,1.40
2017-12-03T01:11:08.028Z,1.40
2017-12-03T01:13:35.151Z,1.40
2017-12-03T01:16:02.003Z,1.50
2017-12-03T01:18:28.880Z,1.50
2017-12-03T01:20:55.687Z,1.50
2017-12-03T01:23:23.728Z,1.40
2017-12-03T01:25:50.636Z,1.40
2017-12-03T01:28:18.374Z,1.30
2017-12-03T01:30:45.735Z,1.30
2017-12-03T01:33:12.622Z,1.30
2017-12-03T01:35:39.920Z,1.30
2017-12-03T01:38:07.552Z,1.40
2017-12-03T01:40:34.425Z,1.40
2017-12-03T01:43:01.325Z,1.40
2017-12-03T01:45:28.265Z,1.50
2017-12-03T01:47:55.128Z,1.40
2017-12-03T01:50:22.059Z,1.50
2017-12-03T01:52:48.910Z,1.30
2017-12-03T01:55:15.771Z,1.40
2017-12-03T01:57:42.623Z,1.40
2017-12-03T02:00:09.517Z,1.30
2017-12-03T02:02:36.391Z,1.40
2017-12-03T02:05:03.300Z,1.30
2017-12-03T02:07:30.197Z,1.40
2017-12-03T02:09:57.078Z,1.40
2017-12-03T02:12:24.012Z,1.40
2017-12-03T02:14:50.860Z,1.40
2017-12-03T02:17:17.704Z,1.30
2017-12-03T02:19:45.872Z,1.40
2017-12-03T02:22:13.566Z,1.40
2017-12-03T02:24:40.415Z,1.40
2017-12-03T02:27:07.251Z,1.50
2017-12-03T02:29:34.096Z,1.40
2017-12-03T02:32:01.046Z,1.40
2017-12-03T02:34:28.011Z,1.40
2017-12-03T02:36:55.551Z,1.40
2017-12-03T02:39:22.809Z,1.50
2017-12-03T02:41:50.407Z,1.50
2017-12-03T02:44:18.003Z,1.40
2017-12-03T02:46:44.912Z,1.40
2017-12-03T02:49:11.803Z,1.40
2017-12-03T02:51:39.435Z,1.30
2017-12-03T02:54:06.302Z,1.30
2017-12-03T02:56:33.146Z,1.40
2017-12-03T02:59:00.072Z,1.40
2017-12-03T03:01:26.947Z,1.50
2017-12-03T03:03:54.573Z,1.40
2017-12-03T03:06:21.419Z,1.40
2017-12-03T03:08:48.279Z,1.40
2017-12-03T03:11:15.184Z,1.50
2017-12-03T03:13:42.078Z,1.40
2017-12-03T03:16:09.763Z,1.20
2017-12-03T03:18:37.367Z,1.30
2017-12-03T03:21:04.227Z,1.30
2017-12-03T03:23:31.115Z,1.40
2017-12-03T03:25:58.711Z,1.50
2017-12-03T03:28:25.562Z,1.50
2017-12-03T03:30:52.416Z,1.50
2017-12-03T03:33:19.260Z,1.40
2017-12-03T03:35:46.164Z,1.40
2017-12-03T03:38:13.075Z,1.50
2017-12-03T03:40:39.972Z,1.50
2017-12-03T03:43:06.824Z,1.40
2017-12-03T03:45:33.662Z,1.50
2017-12-03T03:48:00.533Z,1.50
2017-12-03T03:50:27.387Z,1.50
2017-12-03T03:52:54.256Z,1.50
2017-12-03T03:55:21.111Z,1.50
2017-12-03T03:57:47.967Z,1.50
2017-12-03T04:00:14.904Z,1.50
2017-12-03T04:02:41.811Z,1.50
2017-12-03T04:05:08.691Z,1.40
2017-12-03T04:07:35.547Z,1.50
2017-12-03T04:10:02.474Z,1.60
2017-12-03T04:12:29.339Z,1.50
2017-12-03T04:14:56.187Z,1.50
2017-12-03T04:17:23.054Z,1.50
2017-12-03T04:19:49.864Z,1.50
2017-12-03T04:22:16.774Z,1.50
2017-12-03T04:24:43.587Z,1.40
2017-12-03T04:27:10.469Z,1.50
2017-12-03T04:29:38.115Z,1.40
2017-12-03T04:32:05.027Z,1.40
2017-12-03T04:34:32.679Z,1.50
2017-12-03T04:36:59.603Z,1.50
2017-12-03T04:39:26.514Z,1.40
2017-12-03T04:41:54.218Z,1.40
2017-12-03T04:44:21.147Z,1.40
2017-12-03T04:46:48.090Z,1.30
2017-12-03T04:49:14.984Z,1.20
2017-12-03T04:51:41.881Z,1.30
2017-12-03T04:54:08.741Z,1.20
2017-12-03T04:56:35.650Z,1.30
2017-12-03T04:59:02.561Z,1.30
2017-12-03T05:01:29.494Z,1.30
2017-12-03T05:03:57.125Z,1.20
2017-12-03T05:06:24.034Z,1.20
2017-12-03T05:08:50.972Z,1.40
2017-12-03T05:11:17.882Z,1.30
2017-12-03T05:13:44.762Z,1.40
2017-12-03T05:16:11.686Z,1.30
2017-12-03T05:18:38.634Z,1.20
2017-12-03T05:21:05.532Z,1.20
2017-12-03T05:23:32.420Z,1.30
2017-12-03T05:25:59.331Z,1.30
2017-12-03T05:28:26.272Z,1.30
2017-12-03T05:30:53.162Z,1.20
2017-12-03T05:33:20.819Z,1.20
2017-12-03T05:35:47.708Z,1.20
2017-12-03T05:38:14.613Z,1.20
2017-12-03T05:40:41.522Z,1.00
2017-12-03T05:43:08.406Z,1.20
2017-12-03T05:45:35.324Z,1.20
2017-12-03T05:48:02.243Z,1.20
2017-12-03T05:50:29.119Z,1.30
2017-12-03T05:52:55.999Z,1.20
2017-12-03T05:55:22.907Z,1.20
2017-12-03T05:57:49.813Z,1.20
2017-12-03T06:00:16.763Z,1.20
2017-12-03T06:02:43.658Z,1.30
2017-12-03T06:05:10.588Z,1.20
2017-12-03T06:07:37.456Z,1.20
2017-12-03T06:10:04.382Z,1.20
2017-12-03T06:12:31.993Z,1.30
2017-12-03T06:14:58.866Z,1.30
2017-12-03T06:17:25.761Z,1.30
2017-12-03T06:19:52.633Z,1.20
2017-12-03T06:22:19.573Z,1.20
2017-12-03T06:24:46.519Z,1.30
2017-12-03T06:27:13.442Z,1.20
2017-12-03T06:29:40.339Z,1.30
2017-12-03T06:32:07.313Z,1.30
2017-12-03T06:34:34.226Z,1.30
2017-12-03T06:37:01.863Z,1.00
2017-12-03T06:39:28.770Z,1.00
2017-12-03T06:41:56.488Z,1.00
2017-12-03T06:44:23.380Z,1.00
2017-12-03T06:46:50.325Z,1.10
2017-12-03T06:49:17.212Z,1.20
2017-12-03T06:51:44.170Z,1.10
2017-12-03T06:54:11.089Z,1.10
2017-12-03T06:56:37.990Z,1.20
2017-12-03T06:59:04.868Z,1.20
2017-12-03T07:01:31.785Z,1.20
2017-12-03T07:03:58.674Z,1.20
2017-12-03T07:06:25.599Z,1.20
2017-12-03T07:08:52.523Z,1.10
2017-12-03T07:11:19.408Z,1.10
2017-12-03T07:13:47.009Z,1.30
2017-12-03T07:16:13.902Z,1.20
2017-12-03T07:18:41.150Z,1.20
2017-12-03T07:21:08.175Z,1.20
2017-12-03T07:23:35.810Z,1.10
2017-12-03T07:26:02.754Z,1.10
2017-12-03T07:28:29.688Z,1.20
2017-12-03T07:30:57.347Z,1.00
2017-12-03T07:33:24.468Z,1.00
2017-12-03T07:35:51.350Z,1.10
2017-12-03T07:38:18.328Z,1.00
2017-12-03T07:40:45.232Z,1.00
2017-12-03T07:43:12.073Z,1.10
2017-12-03T07:45:39.701Z,1.00
2017-12-03T07:48:06.581Z,1.00
2017-12-03T07:50:33.495Z,1.10
2017-12-03T07:53:00.403Z,1.20
2017-12-03T07:55:27.323Z,1.20
2017-12-03T07:57:54.246Z,1.20
2017-12-03T08:00:22.152Z,1.30
2017-12-03T08:02:49.812Z,1.30
2017-12-03T08:05:16.819Z,1.30
2017-12-03T08:07:43.784Z,1.10
2017-12-03T08:10:11.691Z,1.30
2017-12-03T08:12:39.232Z,1.30
2017-12-03T08:15:06.379Z,1.30
2017-12-03T08:17:33.477Z,1.30
2017-12-03T08:20:00.540Z,1.30
2017-12-03T08:22:27.796Z,1.30
2017-12-03T08:24:55.473Z,1.30
2017-12-03T08:27:22.706Z,1.30
2017-12-03T08:29:49.964Z,1.10
2017-12-03T08:32:18.250Z,1.30
2017-12-03T08:34:46.547Z,1.30
2017-12-03T08:37:14.692Z,1.30
2017-12-03T08:39:42.483Z,1.20
2017-12-03T08:42:10.351Z,1.20
2017-12-03T08:44:38.015Z,1.20
2017-12-03T08:47:05.504Z,1.20
2017-12-03T08:49:32.827Z,1.30
2017-12-03T08:52:00.741Z,1.00
2017-12-03T08:54:28.011Z,1.20
2017-12-03T08:56:55.120Z,1.30
2017-12-03T08:59:22.792Z,1.00
2017-12-03T09:01:50.566Z,1.20
2017-12-03T09:04:17.457Z,1.20
2017-12-03T09:06:44.359Z,1.20
2017-12-03T09:09:11.283Z,1.20
2017-12-03T09:11:38.175Z,1.30
2017-12-03T09:14:05.076Z,1.20
2017-12-03T09:16:32.071Z,1.30
2017-12-03T09:18:58.999Z,1.30
2017-12-03T09:21:25.870Z,1.30
2017-12-03T09:23:53.544Z,1.20
2017-12-03T09:26:20.451Z,1.20
2017-12-03T09:28:47.396Z,1.10
2017-12-03T09:31:14.347Z,1.30
2017-12-03T09:33:42.041Z,1.20
2017-12-03T09:36:08.917Z,1.20
2017-12-03T09:38:35.777Z,1.20
2017-12-03T09:41:02.729Z,1.20
2017-12-03T09:43:30.139Z,1.20
2017-12-03T09:45:57.109Z,1.30
2017-12-03T09:48:24.078Z,1.30
2017-12-03T09:50:51.059Z,1.30
2017-12-03T09:53:17.957Z,1.30
2017-12-03T09:55:45.170Z,1.30
2017-12-03T09:58:12.195Z,1.20
2017-12-03T10:00:39.155Z,1.20
2017-12-03T10:03:06.062Z,1.10
2017-12-03T10:05:33.052Z,1.10
2017-12-03T10:07:59.975Z,1.10
2017-12-03T10:10:26.874Z,1.10
2017-12-03T10:12:56.048Z,1.20
2017-12-03T10:15:23.076Z,1.20
2017-12-03T10:17:50.699Z,1.30
2017-12-03T10:20:17.596Z,1.30
2017-12-03T10:22:44.494Z,1.30
2017-12-03T10:25:11.424Z,1.30
2017-12-03T10:27:38.312Z,1.30
2017-12-03T10:30:05.274Z,1.30
2017-12-03T10:32:32.205Z,1.30
2017-12-03T10:34:59.172Z,1.30
2017-12-03T10:37:26.084Z,1.30
2017-12-03T10:39:52.943Z,1.20
2017-12-03T10:42:19.801Z,1.30
2017-12-03T10:44:46.844Z,1.30
2017-12-03T10:47:14.492Z,1.30
2017-12-03T10:49:41.407Z,1.30
2017-12-03T10:52:08.386Z,1.20
2017-12-03T10:54:35.417Z,1.20
2017-12-03T10:57:03.172Z,1.30
2017-12-03T10:59:30.033Z,1.30
2017-12-03T11:01:57.031Z,1.30
2017-12-03T11:04:23.986Z,1.30
2017-12-03T11:06:50.976Z,1.30
2017-12-03T11:09:17.942Z,1.30
2017-12-03T11:11:44.833Z,1.30
2017-12-03T11:14:11.749Z,1.30
2017-12-03T11:16:38.629Z,1.30
2017-12-03T11:19:05.568Z,1.30
2017-12-03T11:21:32.420Z,1.30
2017-12-03T11:24:00.051Z,1.30
2017-12-03T11:26:26.970Z,1.30
2017-12-03T11:28:53.820Z,1.40
2017-12-03T11:31:21.426Z,1.30
2017-12-03T11:33:48.278Z,1.30
2017-12-03T11:36:15.178Z,1.40
2017-12-03T11:38:42.034Z,1.40
2017-12-03T11:41:08.954Z,1.30
2017-12-03T11:43:37.930Z,1.30
2017-12-03T11:46:04.862Z,1.40
2017-12-03T11:48:31.656Z,1.40
2017-12-03T11:50:58.500Z,1.30
2017-12-03T11:53:25.398Z,1.30
2017-12-03T11:55:52.987Z,1.30
2017-12-03T11:58:19.868Z,1.30
2017-12-03T12:00:46.835Z,1.30
2017-12-03T12:03:13.704Z,1.40
2017-12-03T12:05:40.530Z,1.40
2017-12-03T12:08:08.966Z,1.40
2017-12-03T12:10:35.984Z,1.40
2017-12-03T12:13:02.922Z,1.30
2017-12-03T12:15:29.861Z,1.40
2017-12-03T12:17:56.680Z,1.40
2017-12-03T12:20:23.707Z,1.40
2017-12-03T12:22:50.829Z,1.40
2017-12-03T12:25:17.879Z,1.40
2017-12-03T12:27:44.777Z,1.40
2017-12-03T12:30:11.690Z,1.40
2017-12-03T12:32:38.533Z,1.50
2017-12-03T12:35:05.400Z,1.50
2017-12-03T12:37:32.316Z,1.40
2017-12-03T12:39:59.194Z,1.50
2017-12-03T12:42:26.080Z,1.50
2017-12-03T12:44:53.527Z,1.50
2017-12-03T12:47:20.521Z,1.50
2017-12-03T12:49:47.484Z,1.50
2017-12-03T12:52:14.423Z,1.50
2017-12-03T12:54:41.427Z,1.50
2017-12-03T12:57:08.356Z,1.50
2017-12-03T12:59:35.205Z,1.60
2017-12-03T13:02:02.198Z,1.50
2017-12-03T13:04:29.079Z,1.60
2017-12-03T13:06:55.921Z,1.60
2017-12-03T13:09:22.745Z,1.50
2017-12-03T13:11:49.600Z,1.50
2017-12-03T13:14:16.511Z,1.60
2017-12-03T13:16:43.357Z,1.60
2017-12-03T13:19:10.215Z,1.60
2017-12-03T13:21:37.084Z,1.60
2017-12-03T13:24:03.950Z,1.60
2017-12-03T13:26:30.917Z,1.60
2017-12-03T13:28:58.524Z,1.60
2017-12-03T13:31:26.093Z,1.60
2017-12-03T13:33:52.959Z,1.60
2017-12-03T13:36:19.845Z,1.60
2017-12-03T13:38:46.703Z,1.60
2017-12-03T13:41:13.547Z,1.60
2017-12-03T13:43:41.128Z,1.60
2017-12-03T13:46:08.759Z,1.70
2017-12-03T13:48:35.625Z,1.60
2017-12-03T13:51:02.471Z,1.60
2017-12-03T13:53:29.353Z,1.60
2017-12-03T13:55:56.186Z,1.60
2017-12-03T13:58:23.063Z,1.60
2017-12-03T14:00:49.907Z,1.60
2017-12-03T14:03:16.785Z,1.60
2017-12-03T14:05:43.602Z,1.60
2017-12-03T14:08:11.251Z,1.60
2017-12-03T14:10:38.132Z,1.60
2017-12-03T14:13:05.763Z,1.60
2017-12-03T14:15:32.641Z,1.60
2017-12-03T14:17:59.658Z,1.70
2017-12-03T14:20:26.713Z,1.60
2017-12-03T14:22:54.367Z,1.70
2017-12-03T14:25:21.271Z,1.70
2017-12-03T14:27:48.879Z,1.80
2017-12-03T14:30:15.809Z,1.80
2017-12-03T14:32:42.652Z,1.80
2017-12-03T14:35:10.233Z,1.70
2017-12-03T14:37:37.149Z,1.70
2017-12-03T14:40:04.020Z,1.70
2017-12-03T14:42:30.904Z,1.70
2017-12-03T14:44:57.787Z,1.80
2017-12-03T14:47:25.464Z,1.80
2017-12-03T14:49:53.064Z,1.80
2017-12-03T14:52:19.902Z,1.80
2017-12-03T14:54:47.518Z,1.70
2017-12-03T14:57:14.338Z,1.70
2017-12-03T14:59:41.193Z,1.80
2017-12-03T15:02:08.016Z,1.80
2017-12-03T15:04:34.911Z,1.80
2017-12-03T15:07:01.811Z,1.90
2017-12-03T15:09:28.901Z,1.90
2017-12-03T15:11:55.765Z,1.90
2017-12-03T15:14:22.715Z,1.90
2017-12-03T15:16:49.794Z,1.80
2017-12-03T15:19:16.718Z,1.80
2017-12-03T15:21:43.618Z,1.80
2017-12-03T15:24:10.519Z,1.90
2017-12-03T15:26:37.485Z,1.90
2017-12-03T15:29:04.432Z,1.90
2017-12-03T15:31:31.395Z,1.90
2017-12-03T15:33:58.339Z,1.90
2017-12-03T15:36:25.277Z,1.90
2017-12-03T15:38:52.258Z,1.80
2017-12-03T15:41:19.227Z,1.90
2017-12-03T15:43:46.286Z,1.90
2017-12-03T15:46:13.323Z,1.90
2017-12-03T15:48:40.358Z,1.90
2017-12-03T15:51:07.463Z,1.90
2017-12-03T15:53:35.508Z,2.00
2017-12-03T15:56:02.647Z,1.90
2017-12-03T15:58:29.680Z,1.80
2017-12-03T16:00:58.190Z,1.90
2017-12-03T16:03:25.160Z,1.90
2017-12-03T16:05:52.078Z,1.90
2017-12-03T16:08:18.994Z,2.00
2017-12-03T16:10:46.088Z,1.90
2017-12-03T16:13:13.641Z,1.90
2017-12-03T16:15:42.407Z,1.90
2017-12-03T16:18:09.494Z,2.00
2017-12-03T16:20:37.875Z,1.90
2017-12-03T16:23:05.387Z,2.00
2017-12-03T16:25:32.450Z,2.00
2017-12-03T16:27:59.647Z,2.00
2017-12-03T16:30:26.639Z,2.00
2017-12-03T16:32:55.096Z,2.00
2017-12-03T16:35:22.078Z,2.00
2017-12-03T16:37:49.024Z,2.00
2017-12-03T16:40:16.627Z,2.00
2017-12-03T16:42:43.581Z,2.00
2017-12-03T16:45:10.919Z,2.10
2017-12-03T16:47:38.200Z,2.00
2017-12-03T16:50:05.191Z,2.00
2017-12-03T16:52:32.394Z,2.00
2017-12-03T16:55:00.104Z,2.10
2017-12-03T16:57:27.282Z,2.10
2017-12-03T16:59:55.411Z,2.10
2017-12-03T17:02:24.396Z,2.10
2017-12-03T17:04:53.454Z,2.10
2017-12-03T17:07:22.199Z,2.10
2017-12-03T17:09:50.189Z,2.10
2017-12-03T17:12:18.468Z,2.10
2017-12-03T17:14:45.807Z,2.00
2017-12-03T17:17:13.649Z,2.10
2017-12-03T17:19:41.677Z,2.20
2017-12-03T17:22:08.753Z,2.20
2017-12-03T17:24:36.857Z,2.20
2017-12-03T17:27:04.242Z,2.10
2017-12-03T17:29:32.019Z,2.10
2017-12-03T17:32:00.091Z,2.10
2017-12-03T17:34:29.053Z,2.10
2017-12-03T17:36:58.994Z,2.20
2017-12-03T17:39:27.817Z,2.20
2017-12-03T17:41:56.139Z,2.20
2017-12-03T17:44:24.950Z,2.20
2017-12-03T17:46:53.879Z,2.10
2017-12-03T17:49:22.836Z,2.10
2017-12-03T17:51:52.246Z,2.20
2017-12-03T17:54:21.865Z,2.20
2017-12-03T17:56:51.073Z,2.20
2017-12-03T17:59:20.313Z,2.20
2017-12-03T18:01:50.238Z,2.20
2017-12-03T18:04:18.980Z,2.20
2017-12-03T18:06:47.861Z,2.20
2017-12-03T18:09:16.604Z,2.10
2017-12-03T18:11:45.443Z,2.20
2017-12-03T18:14:14.094Z,2.20
2017-12-03T18:16:43.322Z,2.30
2017-12-03T18:19:12.285Z,2.20
2017-12-03T18:21:41.392Z,2.30
2017-12-03T18:24:10.604Z,2.30
2017-12-03T18:26:39.588Z,2.30
2017-12-03T18:29:08.788Z,2.30
2017-12-03T18:31:38.686Z,2.30
2017-12-03T18:34:08.677Z,2.30
2017-12-03T18:36:37.696Z,2.40
2017-12-03T18:39:07.114Z,2.30
2017-12-03T18:41:36.178Z,2.30
2017-12-03T18:44:05.140Z,2.30
2017-12-03T18:46:34.224Z,2.40
2017-12-03T18:49:04.325Z,2.40
2017-12-03T18:51:33.164Z,2.40
2017-12-03T18:54:02.981Z,2.40
2017-12-03T18:56:32.508Z,2.40
2017-12-03T18:59:01.620Z,2.40
2017-12-03T19:01:30.796Z,2.40
2017-12-03T19:04:00.446Z,2.40
2017-12-03T19:06:31.115Z,2.40
2017-12-03T19:09:00.476Z,2.40
2017-12-03T19:11:29.506Z,2.40
2017-12-03T19:13:58.729Z,2.40
2017-12-03T19:16:27.762Z,2.50
2017-12-03T19:18:57.643Z,2.50
2017-12-03T19:21:26.632Z,2.50
2017-12-03T19:23:55.559Z,2.50
2017-12-03T19:26:24.968Z,2.50
2017-12-03T19:28:53.812Z,2.60
2017-12-03T19:31:22.679Z,2.50
2017-12-03T19:33:51.639Z,2.60
2017-12-03T19:36:20.847Z,2.50
2017-12-03T19:38:49.570Z,2.50
2017-12-03T19:41:19.212Z,2.60
2017-12-03T19:43:48.446Z,2.60
2017-12-03T19:46:17.291Z,2.60
2017-12-03T19:48:46.340Z,2.60
2017-12-03T19:51:16.119Z,2.60
2017-12-03T19:53:45.218Z,2.60
2017-12-03T19:56:15.039Z,2.60
2017-12-03T19:58:44.135Z,2.60
2017-12-03T20:01:13.101Z,2.60
2017-12-03T20:03:42.069Z,2.70
2017-12-03T20:06:11.149Z,2.70
2017-12-03T20:08:40.190Z,2.70
2017-12-03T20:11:09.104Z,2.60
2017-12-03T20:13:38.028Z,2.70
2017-12-03T20:16:07.725Z,2.70
2017-12-03T20:18:36.702Z,2.70
2017-12-03T20:21:05.823Z,2.70
2017-12-03T20:23:34.304Z,2.70
2017-12-03T20:26:03.139Z,2.70
2017-12-03T20:28:31.948Z,2.70
2017-12-03T20:31:00.026Z,2.70
2017-12-03T20:33:28.769Z,2.70
2017-12-03T20:35:56.054Z,2.70
2017-12-03T20:38:24.023Z,2.70
2017-12-03T20:40:52.898Z,2.70
2017-12-03T20:43:20.947Z,2.70
2017-12-03T20:45:48.079Z,2.70
2017-12-03T20:48:16.844Z,2.80
2017-12-03T20:50:44.076Z,2.70
2017-12-03T20:53:11.207Z,2.80
2017-12-03T20:55:38.993Z,2.80
2017-12-03T20:58:06.281Z,2.80
2017-12-03T21:00:33.405Z,2.80
2017-12-03T21:03:01.052Z,2.80
2017-12-03T21:05:29.751Z,2.80
2017-12-03T21:07:59.121Z,2.80
2017-12-03T21:10:28.166Z,2.80
2017-12-03T21:12:57.367Z,2.80
2017-12-03T21:15:24.678Z,2.80
2017-12-03T21:17:52.040Z,2.80
2017-12-03T21:20:21.079Z,2.80
2017-12-03T21:22:48.069Z,2.80
2017-12-03T21:25:15.435Z,2.80
2017-12-03T21:27:43.981Z,2.80
2017-12-03T21:30:11.138Z,2.90
2017-12-03T21:32:38.071Z,2.80
2017-12-03T21:35:04.933Z,2.90
2017-12-03T21:37:32.611Z,2.90
2017-12-03T21:40:00.544Z,2.80
2017-12-03T21:42:28.337Z,2.90
2017-12-03T21:44:55.234Z,2.90
2017-12-03T21:47:22.150Z,2.90
2017-12-03T21:49:49.013Z,2.90
2017-12-03T21:52:15.902Z,2.80
2017-12-03T21:54:42.756Z,2.90
2017-12-03T21:57:09.647Z,2.80
2017-12-03T21:59:37.264Z,2.90
2017-12-03T22:02:04.159Z,2.90
2017-12-03T22:04:31.048Z,2.80
2017-12-03T22:06:57.889Z,2.90
2017-12-03T22:09:24.736Z,2.90
2017-12-03T22:11:51.708Z,2.90
2017-12-03T22:14:18.594Z,2.90
2017-12-03T22:16:46.654Z,2.90
2017-12-03T22:19:13.640Z,2.90
2017-12-03T22:21:41.067Z,2.90
2017-12-03T22:24:07.931Z,3.00
2017-12-03T22:26:34.792Z,3.00
2017-12-03T22:29:01.684Z,2.90
2017-12-03T22:31:28.532Z,3.00
2017-12-03T22:33:55.562Z,3.00
2017-12-03T22:36:22.414Z,3.00
2017-12-03T22:38:49.992Z,3.00
2017-12-03T22:41:17.586Z,3.00
2017-12-03T22:43:44.472Z,3.00
2017-12-03T22:46:11.343Z,3.00
2017-12-03T22:48:38.175Z,3.00
2017-12-03T22:51:05.057Z,3.00
2017-12-03T22:53:31.926Z,3.00
2017-12-03T22:55:58.838Z,3.00
2017-12-03T22:58:26.432Z,3.10
2017-12-03T23:14:18.624Z,3.10
2017-12-03T23:16:45.809Z,3.10
2017-12-03T23:19:12.696Z,3.10
2017-12-03T23:21:39.588Z,3.20
2017-12-03T23:24:06.903Z,3.10
2017-12-03T23:26:33.939Z,3.10
2017-12-03T23:29:00.871Z,3.10
2017-12-03T23:31:27.799Z,3.20
2017-12-03T23:33:54.768Z,3.10
2017-12-03T23:36:22.439Z,3.10
2017-12-03T23:38:49.279Z,3.20
2017-12-03T23:41:16.154Z,3.20
2017-12-03T23:43:43.083Z,3.20
2017-12-03T23:46:10.168Z,3.20
2017-12-03T23:48:37.928Z,3.20
2017-12-03T23:51:04.824Z,3.20
2017-12-03T23:53:31.665Z,3.20
2017-12-03T23:55:59.292Z,3.20
2017-12-03T23:58:26.220Z,3.20
